sensor_id;sensor_type;location;lat;lon;timestamp;P1;durP1;ratioP1;P2;durP2;ratioP2
14116;SDS011;7137;51.436;6.544;2024-01-11T00:02:08;32.63;;;20.33;;
14116;SDS011;7137;51.436;6.544;2024-01-11T00:05:10;33.83;;;20.73;;
14116;SDS011;7137;51.436;6.544;2024-01-11T00:08:11;31.43;;;20.73;;
14116;SDS011;7137;51.436;6.544;2024-01-11T00:11:13;34.10;;;19.87;;
14116;SDS011;7137;51.436;6.544;2024-01-11T00:14:16;32.00;;;19.47;;
14116;SDS011;7137;51.436;6.544;2024-01-11T00:17:17;30.97;;;20.10;;
14116;SDS011;7137;51.436;6.544;2024-01-11T00:20:18;31.83;;;20.23;;
14116;SDS011;7137;51.436;6.544;2024-01-11T00:23:20;35.97;;;21.23;;
14116;SDS011;7137;51.436;6.544;2024-01-11T00:26:22;33.53;;;19.97;;
14116;SDS011;7137;51.436;6.544;2024-01-11T00:29:25;34.30;;;22.07;;
14116;SDS011;7137;51.436;6.544;2024-01-11T00:32:28;33.67;;;20.77;;
14116;SDS011;7137;51.436;6.544;2024-01-11T00:35:29;31.37;;;20.37;;
14116;SDS011;7137;51.436;6.544;2024-01-11T00:38:31;34.17;;;21.17;;
14116;SDS011;7137;51.436;6.544;2024-01-11T00:41:32;34.23;;;20.90;;
14116;SDS011;7137;51.436;6.544;2024-01-11T00:44:35;35.40;;;21.67;;
14116;SDS011;7137;51.436;6.544;2024-01-11T00:47:36;31.43;;;19.40;;
14116;SDS011;7137;51.436;6.544;2024-01-11T00:50:38;34.37;;;20.40;;
14116;SDS011;7137;51.436;6.544;2024-01-11T00:53:39;36.53;;;21.33;;
14116;SDS011;7137;51.436;6.544;2024-01-11T00:56:41;29.43;;;19.33;;
14116;SDS011;7137;51.436;6.544;2024-01-11T00:59:43;32.57;;;19.63;;
14116;SDS011;7137;51.436;6.544;2024-01-11T01:02:45;30.47;;;18.97;;
14116;SDS011;7137;51.436;6.544;2024-01-11T01:05:46;35.77;;;21.17;;
14116;SDS011;7137;51.436;6.544;2024-01-11T01:08:48;33.00;;;20.20;;
14116;SDS011;7137;51.436;6.544;2024-01-11T01:11:49;32.13;;;21.50;;
14116;SDS011;7137;51.436;6.544;2024-01-11T01:14:52;33.67;;;20.67;;
14116;SDS011;7137;51.436;6.544;2024-01-11T01:17:54;34.20;;;21.73;;
14116;SDS011;7137;51.436;6.544;2024-01-11T01:20:55;36.23;;;20.97;;
14116;SDS011;7137;51.436;6.544;2024-01-11T01:23:57;33.13;;;20.53;;
14116;SDS011;7137;51.436;6.544;2024-01-11T01:26:59;31.27;;;20.50;;
14116;SDS011;7137;51.436;6.544;2024-01-11T01:30:01;36.57;;;21.70;;
14116;SDS011;7137;51.436;6.544;2024-01-11T01:33:03;30.37;;;20.03;;
14116;SDS011;7137;51.436;6.544;2024-01-11T01:36:07;33.53;;;20.13;;
14116;SDS011;7137;51.436;6.544;2024-01-11T01:39:09;33.67;;;21.67;;
14116;SDS011;7137;51.436;6.544;2024-01-11T01:42:11;33.50;;;20.70;;
14116;SDS011;7137;51.436;6.544;2024-01-11T01:45:14;33.73;;;21.03;;
14116;SDS011;7137;51.436;6.544;2024-01-11T01:48:16;33.53;;;21.70;;
14116;SDS011;7137;51.436;6.544;2024-01-11T01:51:18;34.40;;;21.07;;
14116;SDS011;7137;51.436;6.544;2024-01-11T01:54:20;36.70;;;22.37;;
14116;SDS011;7137;51.436;6.544;2024-01-11T01:57:23;33.30;;;21.93;;
14116;SDS011;7137;51.436;6.544;2024-01-11T02:00:27;33.30;;;20.73;;
14116;SDS011;7137;51.436;6.544;2024-01-11T02:03:29;34.73;;;21.73;;
14116;SDS011;7137;51.436;6.544;2024-01-11T02:06:31;32.83;;;21.83;;
14116;SDS011;7137;51.436;6.544;2024-01-11T02:09:35;32.13;;;20.67;;
14116;SDS011;7137;51.436;6.544;2024-01-11T02:12:38;31.73;;;20.80;;
14116;SDS011;7137;51.436;6.544;2024-01-11T02:15:42;33.27;;;21.00;;
14116;SDS011;7137;51.436;6.544;2024-01-11T02:18:44;38.17;;;22.67;;
14116;SDS011;7137;51.436;6.544;2024-01-11T02:21:46;31.27;;;20.37;;
14116;SDS011;7137;51.436;6.544;2024-01-11T02:24:51;33.73;;;21.83;;
14116;SDS011;7137;51.436;6.544;2024-01-11T02:27:53;35.60;;;21.33;;
14116;SDS011;7137;51.436;6.544;2024-01-11T02:30:54;35.40;;;22.10;;
14116;SDS011;7137;51.436;6.544;2024-01-11T02:33:56;37.10;;;21.63;;
14116;SDS011;7137;51.436;6.544;2024-01-11T02:36:57;33.17;;;21.23;;
14116;SDS011;7137;51.436;6.544;2024-01-11T02:40:00;37.23;;;21.90;;
14116;SDS011;7137;51.436;6.544;2024-01-11T02:43:07;35.27;;;22.37;;
14116;SDS011;7137;51.436;6.544;2024-01-11T02:46:09;35.30;;;22.60;;
14116;SDS011;7137;51.436;6.544;2024-01-11T02:49:10;36.20;;;22.50;;
14116;SDS011;7137;51.436;6.544;2024-01-11T02:52:12;35.80;;;22.83;;
14116;SDS011;7137;51.436;6.544;2024-01-11T02:55:14;37.20;;;21.67;;
14116;SDS011;7137;51.436;6.544;2024-01-11T02:58:16;37.80;;;23.97;;
14116;SDS011;7137;51.436;6.544;2024-01-11T03:01:17;37.23;;;23.50;;
14116;SDS011;7137;51.436;6.544;2024-01-11T03:04:19;35.37;;;21.57;;
14116;SDS011;7137;51.436;6.544;2024-01-11T03:07:20;35.43;;;22.40;;
14116;SDS011;7137;51.436;6.544;2024-01-11T03:10:23;35.90;;;21.43;;
14116;SDS011;7137;51.436;6.544;2024-01-11T03:13:25;38.77;;;22.23;;
14116;SDS011;7137;51.436;6.544;2024-01-11T03:16:26;34.17;;;22.63;;
14116;SDS011;7137;51.436;6.544;2024-01-11T03:19:28;38.60;;;23.30;;
14116;SDS011;7137;51.436;6.544;2024-01-11T03:22:29;35.70;;;21.53;;
14116;SDS011;7137;51.436;6.544;2024-01-11T03:25:32;37.33;;;22.80;;
14116;SDS011;7137;51.436;6.544;2024-01-11T03:28:33;36.20;;;21.47;;
14116;SDS011;7137;51.436;6.544;2024-01-11T03:31:35;35.93;;;23.07;;
14116;SDS011;7137;51.436;6.544;2024-01-11T03:34:38;36.17;;;21.80;;
14116;SDS011;7137;51.436;6.544;2024-01-11T03:37:39;36.03;;;22.80;;
14116;SDS011;7137;51.436;6.544;2024-01-11T03:40:42;36.23;;;22.20;;
14116;SDS011;7137;51.436;6.544;2024-01-11T03:43:43;38.97;;;22.43;;
14116;SDS011;7137;51.436;6.544;2024-01-11T03:46:45;35.30;;;21.87;;
14116;SDS011;7137;51.436;6.544;2024-01-11T03:49:46;38.30;;;22.80;;
14116;SDS011;7137;51.436;6.544;2024-01-11T03:52:48;41.43;;;23.73;;
14116;SDS011;7137;51.436;6.544;2024-01-11T03:55:50;37.93;;;22.40;;
14116;SDS011;7137;51.436;6.544;2024-01-11T03:58:52;38.37;;;23.10;;
14116;SDS011;7137;51.436;6.544;2024-01-11T04:01:53;37.73;;;22.73;;
14116;SDS011;7137;51.436;6.544;2024-01-11T04:04:55;38.87;;;23.97;;
14116;SDS011;7137;51.436;6.544;2024-01-11T04:07:56;36.43;;;23.23;;
14116;SDS011;7137;51.436;6.544;2024-01-11T04:10:59;39.30;;;23.63;;
14116;SDS011;7137;51.436;6.544;2024-01-11T04:14:02;38.97;;;23.47;;
14116;SDS011;7137;51.436;6.544;2024-01-11T04:17:04;38.40;;;22.70;;
14116;SDS011;7137;51.436;6.544;2024-01-11T04:20:06;37.93;;;22.37;;
14116;SDS011;7137;51.436;6.544;2024-01-11T04:23:09;36.63;;;22.93;;
14116;SDS011;7137;51.436;6.544;2024-01-11T04:26:11;38.37;;;22.83;;
14116;SDS011;7137;51.436;6.544;2024-01-11T04:29:13;34.37;;;19.60;;
14116;SDS011;7137;51.436;6.544;2024-01-11T04:32:14;41.83;;;23.10;;
14116;SDS011;7137;51.436;6.544;2024-01-11T04:35:16;35.73;;;21.57;;
14116;SDS011;7137;51.436;6.544;2024-01-11T04:38:17;39.37;;;23.10;;
14116;SDS011;7137;51.436;6.544;2024-01-11T04:41:20;36.93;;;22.07;;
14116;SDS011;7137;51.436;6.544;2024-01-11T04:44:21;37.43;;;22.57;;
14116;SDS011;7137;51.436;6.544;2024-01-11T04:47:23;40.20;;;22.80;;
14116;SDS011;7137;51.436;6.544;2024-01-11T04:50:24;36.80;;;22.13;;
14116;SDS011;7137;51.436;6.544;2024-01-11T04:53:26;39.13;;;22.37;;
14116;SDS011;7137;51.436;6.544;2024-01-11T04:56:28;37.03;;;21.97;;
14116;SDS011;7137;51.436;6.544;2024-01-11T04:59:30;40.13;;;23.97;;
14116;SDS011;7137;51.436;6.544;2024-01-11T05:02:31;38.50;;;21.83;;
14116;SDS011;7137;51.436;6.544;2024-01-11T05:05:33;37.90;;;23.00;;
14116;SDS011;7137;51.436;6.544;2024-01-11T05:08:34;36.07;;;21.57;;
14116;SDS011;7137;51.436;6.544;2024-01-11T05:11:38;37.33;;;21.80;;
14116;SDS011;7137;51.436;6.544;2024-01-11T05:14:39;38.13;;;22.03;;
14116;SDS011;7137;51.436;6.544;2024-01-11T05:17:40;36.10;;;20.70;;
14116;SDS011;7137;51.436;6.544;2024-01-11T05:20:42;37.37;;;22.33;;
14116;SDS011;7137;51.436;6.544;2024-01-11T05:23:44;38.47;;;22.87;;
14116;SDS011;7137;51.436;6.544;2024-01-11T05:26:47;36.33;;;21.83;;
14116;SDS011;7137;51.436;6.544;2024-01-11T05:29:48;36.10;;;21.73;;
14116;SDS011;7137;51.436;6.544;2024-01-11T05:32:50;37.37;;;21.63;;
14116;SDS011;7137;51.436;6.544;2024-01-11T05:35:51;37.93;;;22.73;;
14116;SDS011;7137;51.436;6.544;2024-01-11T05:38:53;42.70;;;24.03;;
14116;SDS011;7137;51.436;6.544;2024-01-11T05:41:56;37.93;;;22.57;;
14116;SDS011;7137;51.436;6.544;2024-01-11T05:44:57;38.97;;;23.33;;
14116;SDS011;7137;51.436;6.544;2024-01-11T05:47:59;38.00;;;23.67;;
14116;SDS011;7137;51.436;6.544;2024-01-11T05:51:01;43.57;;;23.50;;
14116;SDS011;7137;51.436;6.544;2024-01-11T05:54:02;42.87;;;21.67;;
14116;SDS011;7137;51.436;6.544;2024-01-11T05:57:05;34.43;;;21.00;;
14116;SDS011;7137;51.436;6.544;2024-01-11T06:00:07;36.93;;;21.80;;
14116;SDS011;7137;51.436;6.544;2024-01-11T06:03:09;35.17;;;21.63;;
14116;SDS011;7137;51.436;6.544;2024-01-11T06:06:12;35.73;;;21.50;;
14116;SDS011;7137;51.436;6.544;2024-01-11T06:09:14;35.23;;;21.80;;
14116;SDS011;7137;51.436;6.544;2024-01-11T06:12:17;39.60;;;22.53;;
14116;SDS011;7137;51.436;6.544;2024-01-11T06:15:18;36.43;;;22.17;;
14116;SDS011;7137;51.436;6.544;2024-01-11T06:18:20;35.17;;;21.23;;
14116;SDS011;7137;51.436;6.544;2024-01-11T06:21:21;36.47;;;22.90;;
14116;SDS011;7137;51.436;6.544;2024-01-11T06:24:23;37.03;;;22.87;;
14116;SDS011;7137;51.436;6.544;2024-01-11T06:27:25;37.47;;;22.13;;
14116;SDS011;7137;51.436;6.544;2024-01-11T06:30:27;36.37;;;22.60;;
14116;SDS011;7137;51.436;6.544;2024-01-11T06:33:28;34.70;;;21.60;;
14116;SDS011;7137;51.436;6.544;2024-01-11T06:36:30;37.33;;;23.03;;
14116;SDS011;7137;51.436;6.544;2024-01-11T06:39:32;41.77;;;25.53;;
14116;SDS011;7137;51.436;6.544;2024-01-11T06:42:35;36.47;;;21.17;;
14116;SDS011;7137;51.436;6.544;2024-01-11T06:45:37;32.33;;;20.80;;
14116;SDS011;7137;51.436;6.544;2024-01-11T06:48:39;41.23;;;22.67;;
14116;SDS011;7137;51.436;6.544;2024-01-11T06:51:40;37.80;;;21.90;;
14116;SDS011;7137;51.436;6.544;2024-01-11T06:54:42;36.40;;;22.63;;
14116;SDS011;7137;51.436;6.544;2024-01-11T06:57:47;35.47;;;21.40;;
14116;SDS011;7137;51.436;6.544;2024-01-11T07:00:49;33.60;;;20.03;;
14116;SDS011;7137;51.436;6.544;2024-01-11T07:03:51;35.90;;;21.87;;
14116;SDS011;7137;51.436;6.544;2024-01-11T07:06:52;34.07;;;21.37;;
14116;SDS011;7137;51.436;6.544;2024-01-11T07:09:53;34.53;;;21.43;;
14116;SDS011;7137;51.436;6.544;2024-01-11T07:12:57;35.33;;;21.43;;
14116;SDS011;7137;51.436;6.544;2024-01-11T07:15:59;35.13;;;20.70;;
14116;SDS011;7137;51.436;6.544;2024-01-11T07:19:03;36.90;;;21.60;;
14116;SDS011;7137;51.436;6.544;2024-01-11T07:22:04;33.97;;;21.57;;
14116;SDS011;7137;51.436;6.544;2024-01-11T07:25:06;35.07;;;21.57;;
14116;SDS011;7137;51.436;6.544;2024-01-11T07:28:09;35.50;;;21.13;;
14116;SDS011;7137;51.436;6.544;2024-01-11T07:31:11;36.00;;;22.03;;
14116;SDS011;7137;51.436;6.544;2024-01-11T07:34:13;35.37;;;22.33;;
14116;SDS011;7137;51.436;6.544;2024-01-11T07:37:14;38.03;;;22.40;;
14116;SDS011;7137;51.436;6.544;2024-01-11T07:40:16;38.00;;;22.70;;
14116;SDS011;7137;51.436;6.544;2024-01-11T07:43:19;36.30;;;22.50;;
14116;SDS011;7137;51.436;6.544;2024-01-11T07:46:20;38.63;;;22.07;;
14116;SDS011;7137;51.436;6.544;2024-01-11T07:49:22;36.40;;;22.40;;
14116;SDS011;7137;51.436;6.544;2024-01-11T07:52:23;37.23;;;21.40;;
14116;SDS011;7137;51.436;6.544;2024-01-11T07:55:25;33.67;;;20.83;;
14116;SDS011;7137;51.436;6.544;2024-01-11T07:58:27;36.30;;;22.23;;
14116;SDS011;7137;51.436;6.544;2024-01-11T08:01:29;33.47;;;21.70;;
14116;SDS011;7137;51.436;6.544;2024-01-11T08:04:30;37.47;;;21.87;;
14116;SDS011;7137;51.436;6.544;2024-01-11T08:07:32;34.47;;;22.30;;
14116;SDS011;7137;51.436;6.544;2024-01-11T08:10:33;34.80;;;21.20;;
14116;SDS011;7137;51.436;6.544;2024-01-11T08:13:36;31.17;;;21.53;;
14116;SDS011;7137;51.436;6.544;2024-01-11T08:16:38;37.50;;;21.33;;
14116;SDS011;7137;51.436;6.544;2024-01-11T08:19:39;34.37;;;22.50;;
14116;SDS011;7137;51.436;6.544;2024-01-11T08:22:42;37.83;;;22.27;;
14116;SDS011;7137;51.436;6.544;2024-01-11T08:25:44;39.83;;;23.87;;
14116;SDS011;7137;51.436;6.544;2024-01-11T08:28:46;38.03;;;23.73;;
14116;SDS011;7137;51.436;6.544;2024-01-11T08:31:48;36.90;;;22.70;;
14116;SDS011;7137;51.436;6.544;2024-01-11T08:34:50;38.40;;;23.23;;
14116;SDS011;7137;51.436;6.544;2024-01-11T08:37:51;39.43;;;23.23;;
14116;SDS011;7137;51.436;6.544;2024-01-11T08:40:53;36.57;;;22.40;;
14116;SDS011;7137;51.436;6.544;2024-01-11T08:43:56;38.80;;;23.33;;
14116;SDS011;7137;51.436;6.544;2024-01-11T08:46:57;36.17;;;22.90;;
14116;SDS011;7137;51.436;6.544;2024-01-11T08:49:59;35.07;;;22.07;;
14116;SDS011;7137;51.436;6.544;2024-01-11T08:53:02;36.33;;;23.57;;
14116;SDS011;7137;51.436;6.544;2024-01-11T08:56:04;37.10;;;22.53;;
14116;SDS011;7137;51.436;6.544;2024-01-11T08:59:07;33.70;;;22.13;;
14116;SDS011;7137;51.436;6.544;2024-01-11T09:02:09;37.13;;;22.73;;
14116;SDS011;7137;51.436;6.544;2024-01-11T09:05:13;39.40;;;22.80;;
14116;SDS011;7137;51.436;6.544;2024-01-11T09:08:15;37.43;;;23.13;;
14116;SDS011;7137;51.436;6.544;2024-01-11T09:11:16;40.80;;;23.00;;
14116;SDS011;7137;51.436;6.544;2024-01-11T09:14:19;34.47;;;22.40;;
14116;SDS011;7137;51.436;6.544;2024-01-11T09:17:21;37.27;;;21.87;;
14116;SDS011;7137;51.436;6.544;2024-01-11T09:20:22;34.50;;;22.50;;
14116;SDS011;7137;51.436;6.544;2024-01-11T09:23:24;36.27;;;22.77;;
14116;SDS011;7137;51.436;6.544;2024-01-11T09:26:25;39.30;;;22.67;;
14116;SDS011;7137;51.436;6.544;2024-01-11T09:29:28;35.00;;;22.90;;
14116;SDS011;7137;51.436;6.544;2024-01-11T09:32:29;33.90;;;20.27;;
14116;SDS011;7137;51.436;6.544;2024-01-11T09:35:31;34.57;;;20.57;;
14116;SDS011;7137;51.436;6.544;2024-01-11T09:38:32;32.50;;;21.33;;
14116;SDS011;7137;51.436;6.544;2024-01-11T09:41:34;33.40;;;19.47;;
14116;SDS011;7137;51.436;6.544;2024-01-11T09:44:39;31.47;;;20.33;;
14116;SDS011;7137;51.436;6.544;2024-01-11T09:47:43;34.57;;;21.30;;
14116;SDS011;7137;51.436;6.544;2024-01-11T09:50:45;30.83;;;19.87;;
14116;SDS011;7137;51.436;6.544;2024-01-11T09:53:47;34.70;;;22.47;;
14116;SDS011;7137;51.436;6.544;2024-01-11T09:56:52;31.67;;;21.23;;
14116;SDS011;7137;51.436;6.544;2024-01-11T09:59:57;32.73;;;21.30;;
14116;SDS011;7137;51.436;6.544;2024-01-11T10:02:59;31.43;;;20.30;;
14116;SDS011;7137;51.436;6.544;2024-01-11T10:06:01;32.90;;;22.20;;
14116;SDS011;7137;51.436;6.544;2024-01-11T10:09:04;32.97;;;21.67;;
14116;SDS011;7137;51.436;6.544;2024-01-11T10:12:06;34.73;;;21.87;;
14116;SDS011;7137;51.436;6.544;2024-01-11T10:15:10;33.23;;;20.90;;
14116;SDS011;7137;51.436;6.544;2024-01-11T10:18:13;33.53;;;20.90;;
14116;SDS011;7137;51.436;6.544;2024-01-11T10:21:14;32.67;;;20.20;;
14116;SDS011;7137;51.436;6.544;2024-01-11T10:24:17;31.47;;;19.47;;
14116;SDS011;7137;51.436;6.544;2024-01-11T10:27:20;34.60;;;21.90;;
14116;SDS011;7137;51.436;6.544;2024-01-11T10:30:28;37.03;;;22.97;;
14116;SDS011;7137;51.436;6.544;2024-01-11T10:33:30;36.60;;;21.20;;
14116;SDS011;7137;51.436;6.544;2024-01-11T10:36:31;38.13;;;22.40;;
14116;SDS011;7137;51.436;6.544;2024-01-11T10:39:33;36.40;;;21.17;;
14116;SDS011;7137;51.436;6.544;2024-01-11T10:42:37;31.60;;;19.50;;
14116;SDS011;7137;51.436;6.544;2024-01-11T10:45:43;29.57;;;19.43;;
14116;SDS011;7137;51.436;6.544;2024-01-11T10:48:48;32.47;;;20.93;;
14116;SDS011;7137;51.436;6.544;2024-01-11T10:51:56;29.80;;;20.03;;
14116;SDS011;7137;51.436;6.544;2024-01-11T10:55:00;31.87;;;19.53;;
14116;SDS011;7137;51.436;6.544;2024-01-11T10:58:03;31.83;;;20.30;;
14116;SDS011;7137;51.436;6.544;2024-01-11T11:01:06;32.83;;;21.00;;
14116;SDS011;7137;51.436;6.544;2024-01-11T11:04:08;28.27;;;19.03;;
14116;SDS011;7137;51.436;6.544;2024-01-11T11:07:11;32.80;;;19.70;;
14116;SDS011;7137;51.436;6.544;2024-01-11T11:10:15;31.97;;;20.27;;
14116;SDS011;7137;51.436;6.544;2024-01-11T11:13:18;33.23;;;20.87;;
14116;SDS011;7137;51.436;6.544;2024-01-11T11:16:21;35.50;;;20.43;;
14116;SDS011;7137;51.436;6.544;2024-01-11T11:19:24;30.03;;;18.87;;
14116;SDS011;7137;51.436;6.544;2024-01-11T11:22:26;29.97;;;19.50;;
14116;SDS011;7137;51.436;6.544;2024-01-11T11:25:28;28.43;;;19.37;;
14116;SDS011;7137;51.436;6.544;2024-01-11T11:28:31;28.40;;;19.00;;
14116;SDS011;7137;51.436;6.544;2024-01-11T11:31:36;27.43;;;18.23;;
14116;SDS011;7137;51.436;6.544;2024-01-11T11:34:41;29.03;;;18.97;;
14116;SDS011;7137;51.436;6.544;2024-01-11T11:37:44;26.60;;;18.60;;
14116;SDS011;7137;51.436;6.544;2024-01-11T11:40:46;29.03;;;18.37;;
14116;SDS011;7137;51.436;6.544;2024-01-11T11:43:48;30.60;;;18.87;;
14116;SDS011;7137;51.436;6.544;2024-01-11T11:46:53;31.20;;;18.67;;
14116;SDS011;7137;51.436;6.544;2024-01-11T11:50:02;25.80;;;18.07;;
14116;SDS011;7137;51.436;6.544;2024-01-11T11:53:05;27.40;;;17.77;;
14116;SDS011;7137;51.436;6.544;2024-01-11T11:56:08;26.87;;;17.77;;
14116;SDS011;7137;51.436;6.544;2024-01-11T11:59:10;27.37;;;17.83;;
14116;SDS011;7137;51.436;6.544;2024-01-11T12:02:14;30.13;;;18.50;;
14116;SDS011;7137;51.436;6.544;2024-01-11T12:05:18;29.63;;;18.07;;
14116;SDS011;7137;51.436;6.544;2024-01-11T12:08:19;26.40;;;16.93;;
14116;SDS011;7137;51.436;6.544;2024-01-11T12:11:22;27.47;;;17.60;;
14116;SDS011;7137;51.436;6.544;2024-01-11T12:14:24;26.80;;;17.37;;
14116;SDS011;7137;51.436;6.544;2024-01-11T12:17:28;27.17;;;17.73;;
14116;SDS011;7137;51.436;6.544;2024-01-11T12:20:29;25.13;;;17.03;;
14116;SDS011;7137;51.436;6.544;2024-01-11T12:23:31;28.03;;;17.57;;
14116;SDS011;7137;51.436;6.544;2024-01-11T12:26:33;26.87;;;17.83;;
14116;SDS011;7137;51.436;6.544;2024-01-11T12:29:35;26.53;;;17.93;;
14116;SDS011;7137;51.436;6.544;2024-01-11T12:32:38;26.73;;;17.43;;
14116;SDS011;7137;51.436;6.544;2024-01-11T12:35:39;27.77;;;17.43;;
14116;SDS011;7137;51.436;6.544;2024-01-11T12:38:45;26.03;;;17.73;;
14116;SDS011;7137;51.436;6.544;2024-01-11T12:41:48;29.47;;;17.40;;
14116;SDS011;7137;51.436;6.544;2024-01-11T12:44:50;25.67;;;15.70;;
14116;SDS011;7137;51.436;6.544;2024-01-11T12:47:53;29.53;;;16.70;;
14116;SDS011;7137;51.436;6.544;2024-01-11T12:50:56;25.37;;;16.10;;
14116;SDS011;7137;51.436;6.544;2024-01-11T12:53:57;24.97;;;16.43;;
14116;SDS011;7137;51.436;6.544;2024-01-11T12:56:59;27.87;;;15.50;;
14116;SDS011;7137;51.436;6.544;2024-01-11T13:00:09;26.07;;;16.13;;
14116;SDS011;7137;51.436;6.544;2024-01-11T13:03:12;20.53;;;13.73;;
14116;SDS011;7137;51.436;6.544;2024-01-11T13:06:14;24.20;;;15.47;;
14116;SDS011;7137;51.436;6.544;2024-01-11T13:09:17;25.50;;;14.93;;
14116;SDS011;7137;51.436;6.544;2024-01-11T13:12:18;24.47;;;14.67;;
14116;SDS011;7137;51.436;6.544;2024-01-11T13:15:20;22.73;;;14.73;;
14116;SDS011;7137;51.436;6.544;2024-01-11T13:18:24;26.10;;;16.77;;
14116;SDS011;7137;51.436;6.544;2024-01-11T13:21:26;23.57;;;14.77;;
14116;SDS011;7137;51.436;6.544;2024-01-11T13:24:28;27.03;;;16.50;;
14116;SDS011;7137;51.436;6.544;2024-01-11T13:27:29;22.83;;;15.27;;
14116;SDS011;7137;51.436;6.544;2024-01-11T13:30:31;24.37;;;14.93;;
14116;SDS011;7137;51.436;6.544;2024-01-11T13:33:34;26.10;;;15.87;;
14116;SDS011;7137;51.436;6.544;2024-01-11T13:36:35;25.30;;;15.20;;
14116;SDS011;7137;51.436;6.544;2024-01-11T13:39:37;23.50;;;15.47;;
14116;SDS011;7137;51.436;6.544;2024-01-11T13:42:39;23.40;;;15.60;;
14116;SDS011;7137;51.436;6.544;2024-01-11T13:45:40;22.27;;;14.40;;
14116;SDS011;7137;51.436;6.544;2024-01-11T13:48:45;22.57;;;14.80;;
14116;SDS011;7137;51.436;6.544;2024-01-11T13:51:46;26.50;;;16.17;;
14116;SDS011;7137;51.436;6.544;2024-01-11T13:54:48;25.87;;;16.60;;
14116;SDS011;7137;51.436;6.544;2024-01-11T13:57:50;24.63;;;15.83;;
14116;SDS011;7137;51.436;6.544;2024-01-11T14:00:52;23.23;;;15.70;;
14116;SDS011;7137;51.436;6.544;2024-01-11T14:03:55;24.33;;;15.77;;
14116;SDS011;7137;51.436;6.544;2024-01-11T14:06:57;23.03;;;13.37;;
14116;SDS011;7137;51.436;6.544;2024-01-11T14:09:58;20.37;;;15.07;;
14116;SDS011;7137;51.436;6.544;2024-01-11T14:13:00;22.40;;;14.37;;
14116;SDS011;7137;51.436;6.544;2024-01-11T14:16:02;24.00;;;14.73;;
14116;SDS011;7137;51.436;6.544;2024-01-11T14:19:06;23.00;;;15.17;;
14116;SDS011;7137;51.436;6.544;2024-01-11T14:22:08;21.23;;;14.63;;
14116;SDS011;7137;51.436;6.544;2024-01-11T14:25:10;25.33;;;15.97;;
14116;SDS011;7137;51.436;6.544;2024-01-11T14:28:11;22.13;;;14.67;;
14116;SDS011;7137;51.436;6.544;2024-01-11T14:31:13;20.80;;;14.37;;
14116;SDS011;7137;51.436;6.544;2024-01-11T14:34:16;23.37;;;15.80;;
14116;SDS011;7137;51.436;6.544;2024-01-11T14:37:18;20.67;;;14.77;;
14116;SDS011;7137;51.436;6.544;2024-01-11T14:40:19;19.97;;;14.67;;
14116;SDS011;7137;51.436;6.544;2024-01-11T14:43:21;21.83;;;15.80;;
14116;SDS011;7137;51.436;6.544;2024-01-11T14:46:22;22.53;;;16.43;;
14116;SDS011;7137;51.436;6.544;2024-01-11T14:49:26;23.80;;;17.30;;
14116;SDS011;7137;51.436;6.544;2024-01-11T14:52:29;22.17;;;15.40;;
14116;SDS011;7137;51.436;6.544;2024-01-11T14:55:31;21.50;;;14.70;;
14116;SDS011;7137;51.436;6.544;2024-01-11T14:58:33;23.70;;;15.17;;
14116;SDS011;7137;51.436;6.544;2024-01-11T15:01:34;20.37;;;14.83;;
14116;SDS011;7137;51.436;6.544;2024-01-11T15:04:37;21.20;;;14.73;;
14116;SDS011;7137;51.436;6.544;2024-01-11T15:07:39;21.33;;;14.20;;
14116;SDS011;7137;51.436;6.544;2024-01-11T15:10:40;21.10;;;13.40;;
14116;SDS011;7137;51.436;6.544;2024-01-11T15:13:42;19.40;;;11.30;;
14116;SDS011;7137;51.436;6.544;2024-01-11T15:16:44;18.70;;;10.57;;
14116;SDS011;7137;51.436;6.544;2024-01-11T15:19:49;16.30;;;10.00;;
14116;SDS011;7137;51.436;6.544;2024-01-11T15:22:50;14.00;;;9.23;;
14116;SDS011;7137;51.436;6.544;2024-01-11T15:25:52;13.50;;;8.70;;
14116;SDS011;7137;51.436;6.544;2024-01-11T15:28:54;10.80;;;7.03;;
14116;SDS011;7137;51.436;6.544;2024-01-11T15:31:55;11.03;;;7.20;;
14116;SDS011;7137;51.436;6.544;2024-01-11T15:34:58;12.77;;;8.03;;
14116;SDS011;7137;51.436;6.544;2024-01-11T15:38:00;14.17;;;9.23;;
14116;SDS011;7137;51.436;6.544;2024-01-11T15:41:01;14.10;;;9.63;;
14116;SDS011;7137;51.436;6.544;2024-01-11T15:44:04;15.87;;;9.60;;
14116;SDS011;7137;51.436;6.544;2024-01-11T15:47:06;16.67;;;10.57;;
14116;SDS011;7137;51.436;6.544;2024-01-11T15:50:11;19.20;;;12.53;;
14116;SDS011;7137;51.436;6.544;2024-01-11T15:53:13;18.60;;;12.70;;
14116;SDS011;7137;51.436;6.544;2024-01-11T15:56:14;18.50;;;12.43;;
14116;SDS011;7137;51.436;6.544;2024-01-11T15:59:16;18.93;;;12.40;;
14116;SDS011;7137;51.436;6.544;2024-01-11T16:02:17;65.83;;;34.67;;
14116;SDS011;7137;51.436;6.544;2024-01-11T16:05:21;21.47;;;14.30;;
14116;SDS011;7137;51.436;6.544;2024-01-11T16:08:23;19.07;;;13.07;;
14116;SDS011;7137;51.436;6.544;2024-01-11T16:11:24;17.63;;;13.00;;
14116;SDS011;7137;51.436;6.544;2024-01-11T16:14:26;17.60;;;12.33;;
14116;SDS011;7137;51.436;6.544;2024-01-11T16:17:28;17.80;;;11.73;;
14116;SDS011;7137;51.436;6.544;2024-01-11T16:20:31;17.00;;;12.33;;
14116;SDS011;7137;51.436;6.544;2024-01-11T16:23:32;19.23;;;12.70;;
14116;SDS011;7137;51.436;6.544;2024-01-11T16:26:34;23.40;;;14.40;;
14116;SDS011;7137;51.436;6.544;2024-01-11T16:29:36;39.57;;;21.50;;
14116;SDS011;7137;51.436;6.544;2024-01-11T16:32:40;34.33;;;18.23;;
14116;SDS011;7137;51.436;6.544;2024-01-11T16:35:43;14.27;;;9.40;;
14116;SDS011;7137;51.436;6.544;2024-01-11T16:38:46;12.53;;;9.60;;
14116;SDS011;7137;51.436;6.544;2024-01-11T16:41:48;13.80;;;9.07;;
14116;SDS011;7137;51.436;6.544;2024-01-11T16:44:49;14.33;;;9.63;;
14116;SDS011;7137;51.436;6.544;2024-01-11T16:47:51;14.83;;;10.30;;
14116;SDS011;7137;51.436;6.544;2024-01-11T16:50:54;13.77;;;9.70;;
14116;SDS011;7137;51.436;6.544;2024-01-11T16:53:56;15.73;;;10.20;;
14116;SDS011;7137;51.436;6.544;2024-01-11T16:56:57;13.83;;;10.60;;
14116;SDS011;7137;51.436;6.544;2024-01-11T16:59:59;15.73;;;11.30;;
14116;SDS011;7137;51.436;6.544;2024-01-11T17:03:01;17.40;;;12.57;;
14116;SDS011;7137;51.436;6.544;2024-01-11T17:06:04;16.10;;;10.90;;
14116;SDS011;7137;51.436;6.544;2024-01-11T17:09:06;15.53;;;11.20;;
14116;SDS011;7137;51.436;6.544;2024-01-11T17:12:08;17.53;;;12.13;;
14116;SDS011;7137;51.436;6.544;2024-01-11T17:15:09;15.73;;;12.10;;
14116;SDS011;7137;51.436;6.544;2024-01-11T17:18:13;15.57;;;11.80;;
14116;SDS011;7137;51.436;6.544;2024-01-11T17:21:16;17.57;;;13.27;;
14116;SDS011;7137;51.436;6.544;2024-01-11T17:24:18;16.87;;;12.47;;
14116;SDS011;7137;51.436;6.544;2024-01-11T17:27:20;16.57;;;12.40;;
14116;SDS011;7137;51.436;6.544;2024-01-11T17:30:22;17.20;;;13.10;;
14116;SDS011;7137;51.436;6.544;2024-01-11T17:33:23;20.40;;;14.60;;
14116;SDS011;7137;51.436;6.544;2024-01-11T17:36:26;18.33;;;13.93;;
14116;SDS011;7137;51.436;6.544;2024-01-11T17:39:28;20.27;;;14.50;;
14116;SDS011;7137;51.436;6.544;2024-01-11T17:42:30;19.93;;;14.20;;
14116;SDS011;7137;51.436;6.544;2024-01-11T17:45:31;18.80;;;13.23;;
14116;SDS011;7137;51.436;6.544;2024-01-11T17:48:35;17.67;;;12.90;;
14116;SDS011;7137;51.436;6.544;2024-01-11T17:51:39;17.93;;;13.27;;
14116;SDS011;7137;51.436;6.544;2024-01-11T17:54:40;18.83;;;13.33;;
14116;SDS011;7137;51.436;6.544;2024-01-11T17:57:42;19.13;;;14.13;;
14116;SDS011;7137;51.436;6.544;2024-01-11T18:00:43;21.97;;;14.50;;
14116;SDS011;7137;51.436;6.544;2024-01-11T18:03:45;20.43;;;14.73;;